createdAt,value
2023-03-17T00:01:48.208Z,46.38
2023-03-17T00:03:51.924Z,45.95
2023-03-17T00:05:56.357Z,44.25
2023-03-17T00:08:04.513Z,46.47
2023-03-17T00:10:14.806Z,45.05
2023-03-17T00:12:18.338Z,41.10
2023-03-17T00:14:23.147Z,42.67
2023-03-17T00:16:27.796Z,44.20
2023-03-17T00:18:32.014Z,42.35
2023-03-17T00:20:34.899Z,40.13
2023-03-17T00:22:37.979Z,40.17
2023-03-17T00:24:40.847Z,41.53
2023-03-17T00:26:43.843Z,43.30
2023-03-17T00:28:46.912Z,46.08
2023-03-17T00:30:55.278Z,46.85
2023-03-17T00:32:59.046Z,45.22
2023-03-17T00:35:02.398Z,45.85
2023-03-17T00:37:05.258Z,46.90
2023-03-17T00:41:16.534Z,44.13
2023-03-17T00:43:20.096Z,42.25
2023-03-17T00:45:24.464Z,41.75
2023-03-17T00:47:29.153Z,43.45
2023-03-17T00:49:33.003Z,43.45
2023-03-17T00:51:36.393Z,43.15
2023-03-17T00:53:40.093Z,44.05
2023-03-17T00:55:44.884Z,44.10
2023-03-17T00:57:48.926Z,43.35
2023-03-17T00:59:52.663Z,41.70
2023-03-17T01:01:55.702Z,42.20
2023-03-17T01:04:00.096Z,41.30
2023-03-17T01:06:05.035Z,42.67
2023-03-17T01:08:09.514Z,41.30
2023-03-17T01:10:15.845Z,41.17
2023-03-17T01:12:18.923Z,41.72
2023-03-17T01:14:22.835Z,40.15
2023-03-17T01:16:25.794Z,42.97
2023-03-17T01:18:29.133Z,40.88
2023-03-17T01:20:35.697Z,40.53
2023-03-17T01:22:38.624Z,41.28
2023-03-17T01:24:41.771Z,42.00
2023-03-17T01:26:45.152Z,40.42
2023-03-17T01:28:48.229Z,38.83
2023-03-17T01:30:51.463Z,39.92
2023-03-17T01:32:55.945Z,39.65
2023-03-17T01:34:59.624Z,40.70
2023-03-17T01:37:04.108Z,40.38
2023-03-17T01:39:07.711Z,40.55
2023-03-17T01:41:11.584Z,37.78
2023-03-17T01:43:21.061Z,38.90
2023-03-17T01:46:00.915Z,39.22
2023-03-17T01:48:04.203Z,40.53
2023-03-17T01:50:10.466Z,40.40
2023-03-17T01:52:18.655Z,41.33
2023-03-17T01:54:26.573Z,39.55
2023-03-17T01:56:30.535Z,41.72
2023-03-17T01:58:34.725Z,40.33
2023-03-17T02:00:38.364Z,40.92
2023-03-17T02:02:44.134Z,41.00
2023-03-17T02:04:47.142Z,42.13
2023-03-17T02:06:57.945Z,40.20
2023-03-17T02:09:03.400Z,40.38
2023-03-17T02:11:07.325Z,43.20
2023-03-17T02:13:12.863Z,42.58
2023-03-17T02:15:16.006Z,41.42
2023-03-17T02:17:21.503Z,41.83
2023-03-17T02:19:24.833Z,39.70
2023-03-17T02:21:38.733Z,40.53
2023-03-17T02:23:44.534Z,38.70
2023-03-17T02:25:47.973Z,39.95
2023-03-17T02:27:55.132Z,42.75
2023-03-17T02:29:58.542Z,43.33
2023-03-17T02:32:01.674Z,44.17
2023-03-17T02:34:06.154Z,44.17
2023-03-17T02:36:09.883Z,43.70
2023-03-17T02:38:14.481Z,42.75
2023-03-17T02:40:17.856Z,42.22
2023-03-17T02:42:21.278Z,43.00
2023-03-17T02:44:24.159Z,41.92
2023-03-17T02:46:29.660Z,42.00
2023-03-17T02:48:37.753Z,40.95
2023-03-17T02:50:41.016Z,42.90
2023-03-17T02:52:43.858Z,40.35
2023-03-17T02:54:48.520Z,39.25
2023-03-17T02:56:51.499Z,38.97
2023-03-17T02:58:54.423Z,39.15
2023-03-17T03:00:57.391Z,41.22
2023-03-17T03:03:00.307Z,42.88
2023-03-17T03:05:03.390Z,40.00
2023-03-17T03:07:06.964Z,40.25
2023-03-17T03:09:10.910Z,40.97
2023-03-17T03:11:15.601Z,40.17
2023-03-17T03:13:18.417Z,42.60
2023-03-17T03:15:21.905Z,41.17
2023-03-17T03:17:24.949Z,40.72
2023-03-17T03:19:28.600Z,41.53
2023-03-17T03:21:31.954Z,40.70
2023-03-17T03:23:35.039Z,40.50
2023-03-17T03:25:38.350Z,40.65
2023-03-17T03:27:42.771Z,43.25
2023-03-17T03:29:45.600Z,42.55
2023-03-17T03:31:49.019Z,42.92
2023-03-17T03:33:51.986Z,41.95
2023-03-17T03:35:55.158Z,44.28
2023-03-17T03:37:58.256Z,42.92
2023-03-17T03:40:01.290Z,42.00
2023-03-17T03:42:04.493Z,40.92
2023-03-17T03:44:09.091Z,43.15
2023-03-17T03:46:11.961Z,39.53
2023-03-17T03:48:14.980Z,41.58
2023-03-17T03:50:18.306Z,40.42
2023-03-17T03:52:22.728Z,41.00
2023-03-17T03:54:25.669Z,39.75
2023-03-17T03:56:28.590Z,39.42
2023-03-17T03:58:31.398Z,40.92
2023-03-17T04:00:36.093Z,39.80
2023-03-17T04:02:39.243Z,40.67
2023-03-17T04:04:43.056Z,38.20
2023-03-17T04:06:46.154Z,37.53
2023-03-17T04:08:49.325Z,37.33
2023-03-17T04:10:52.195Z,36.78
2023-03-17T04:12:56.121Z,35.85
2023-03-17T04:14:59.048Z,37.53
2023-03-17T04:17:05.048Z,37.00
2023-03-17T04:19:07.975Z,37.65
2023-03-17T04:21:10.985Z,34.28
2023-03-17T04:23:14.189Z,33.97
2023-03-17T04:25:17.294Z,34.05
2023-03-17T04:27:20.172Z,35.47
2023-03-17T04:29:23.775Z,34.60
2023-03-17T04:31:26.743Z,33.40
2023-03-17T04:33:31.157Z,34.00
2023-03-17T04:35:34.122Z,32.97
2023-03-17T04:37:37.097Z,30.55
2023-03-17T04:39:40.149Z,32.10
2023-03-17T04:41:44.035Z,31.90
2023-03-17T04:43:46.923Z,32.38
2023-03-17T04:45:49.851Z,34.60
2023-03-17T04:47:52.806Z,35.70
2023-03-17T04:49:57.194Z,36.70
2023-03-17T04:52:00.094Z,34.83
2023-03-17T04:54:03.244Z,34.22
2023-03-17T04:56:06.982Z,36.42
2023-03-17T04:58:11.762Z,36.42
2023-03-17T05:00:16.966Z,36.75
2023-03-17T05:02:20.166Z,35.33
2023-03-17T05:04:31.070Z,34.53
2023-03-17T05:06:37.546Z,36.17
2023-03-17T05:08:40.511Z,37.92
2023-03-17T05:10:43.414Z,36.95
2023-03-17T05:12:46.319Z,36.38
2023-03-17T05:14:49.245Z,37.75
2023-03-17T05:16:52.462Z,36.72
2023-03-17T05:18:55.741Z,37.72
2023-03-17T05:20:58.747Z,37.03
2023-03-17T05:23:03.347Z,37.75
2023-03-17T05:25:07.314Z,36.92
2023-03-17T05:27:10.265Z,36.47
2023-03-17T05:29:13.240Z,35.72
2023-03-17T05:31:16.276Z,36.22
2023-03-17T05:33:20.470Z,35.88
2023-03-17T05:35:23.975Z,34.72
2023-03-17T05:37:26.973Z,34.75
2023-03-17T05:39:31.554Z,34.22
2023-03-17T05:41:34.502Z,36.45
2023-03-17T05:43:37.793Z,41.50
2023-03-17T05:45:41.595Z,36.88
2023-03-17T05:47:44.756Z,46.40
2023-03-17T05:49:47.634Z,41.60
2023-03-17T05:51:50.676Z,40.28
2023-03-17T05:53:53.604Z,40.80
2023-03-17T05:55:58.096Z,34.53
2023-03-17T05:58:01.245Z,39.42
2023-03-17T06:00:05.612Z,42.92
2023-03-17T06:02:09.033Z,39.65
2023-03-17T06:04:12.273Z,41.67
2023-03-17T06:06:15.326Z,41.95
2023-03-17T06:08:18.401Z,42.08
2023-03-17T06:10:21.753Z,44.60
2023-03-17T06:12:26.637Z,45.90
2023-03-17T06:14:29.426Z,41.13
2023-03-17T06:16:33.623Z,41.72
2023-03-17T06:18:37.125Z,43.30
2023-03-17T06:20:40.181Z,41.88
2023-03-17T06:23:00.484Z,43.97
2023-03-17T06:25:06.821Z,40.78
2023-03-17T06:27:11.297Z,43.08
2023-03-17T06:29:16.427Z,45.88
2023-03-17T06:31:20.932Z,42.88
2023-03-17T06:33:24.303Z,43.22
2023-03-17T06:35:27.889Z,39.35
2023-03-17T06:37:31.186Z,46.28
2023-03-17T06:39:34.066Z,38.97
2023-03-17T06:41:37.337Z,46.45
2023-03-17T06:43:40.155Z,44.40
2023-03-17T06:45:44.546Z,44.55
2023-03-17T06:47:47.426Z,45.53
2023-03-17T06:49:50.528Z,34.28
2023-03-17T06:51:54.441Z,31.13
2023-03-17T06:53:57.618Z,37.53
2023-03-17T06:56:00.616Z,23.33
2023-03-17T06:58:03.808Z,33.08
2023-03-17T07:00:08.105Z,27.50
2023-03-17T07:02:13.009Z,27.17
2023-03-17T07:04:16.183Z,25.20
2023-03-17T07:06:19.317Z,22.63
2023-03-17T07:08:22.486Z,23.50
2023-03-17T07:10:25.836Z,25.23
2023-03-17T07:12:29.165Z,24.65
2023-03-17T07:14:34.129Z,25.35
2023-03-17T07:16:37.901Z,24.33
2023-03-17T07:18:42.653Z,25.30
2023-03-17T07:20:45.505Z,24.02
2023-03-17T07:22:48.477Z,23.23
2023-03-17T07:24:52.271Z,20.63
2023-03-17T07:26:55.277Z,21.95
2023-03-17T07:29:01.272Z,20.55
2023-03-17T07:31:08.127Z,21.05
2023-03-17T07:33:11.618Z,20.83
2023-03-17T07:35:16.448Z,20.23
2023-03-17T07:37:19.725Z,20.37
2023-03-17T07:39:22.813Z,19.05
2023-03-17T07:41:25.805Z,18.45
2023-03-17T07:43:28.797Z,18.75
2023-03-17T07:45:33.474Z,18.60
2023-03-17T07:47:36.752Z,16.38
2023-03-17T07:49:41.903Z,18.75
2023-03-17T07:53:53.356Z,16.08
2023-03-17T07:55:56.436Z,15.48
2023-03-17T07:57:59.464Z,13.77
2023-03-17T08:00:02.620Z,14.35
2023-03-17T08:02:16.850Z,15.68
2023-03-17T08:06:22.609Z,15.95
2023-03-17T08:08:28.556Z,12.68
2023-03-17T08:10:31.944Z,13.45
2023-03-17T08:12:35.474Z,14.05
2023-03-17T08:14:38.295Z,12.20
2023-03-17T08:16:41.681Z,13.77
2023-03-17T08:18:45.109Z,13.07
2023-03-17T08:20:48.267Z,12.75
2023-03-17T08:22:51.360Z,12.70
2023-03-17T08:24:56.023Z,12.82
2023-03-17T08:27:00.838Z,12.70
2023-03-17T08:29:05.309Z,12.48
2023-03-17T08:31:13.944Z,13.10
2023-03-17T08:33:17.368Z,14.45
2023-03-17T08:35:21.149Z,12.57
2023-03-17T08:37:25.103Z,13.45
2023-03-17T08:39:28.175Z,12.63
2023-03-17T08:41:32.929Z,14.05
2023-03-17T08:43:37.636Z,11.67
2023-03-17T08:45:41.048Z,13.63
2023-03-17T08:47:43.976Z,13.52
2023-03-17T08:49:47.136Z,12.38
2023-03-17T08:51:50.165Z,13.48
2023-03-17T08:53:54.224Z,13.10
2023-03-17T08:55:58.015Z,14.45
2023-03-17T08:58:03.866Z,14.05
2023-03-17T09:00:11.303Z,13.35
2023-03-17T09:02:15.277Z,13.43
2023-03-17T09:04:18.258Z,13.35
2023-03-17T09:06:22.492Z,13.57
2023-03-17T09:08:26.889Z,13.98
2023-03-17T09:10:30.696Z,12.95
2023-03-17T09:12:34.358Z,11.15
2023-03-17T09:14:43.938Z,12.18
2023-03-17T09:16:49.077Z,9.30
2023-03-17T09:18:52.747Z,10.20
2023-03-17T09:20:55.788Z,7.75
2023-03-17T09:22:59.468Z,6.65
2023-03-17T09:25:02.443Z,5.70
2023-03-17T09:27:05.916Z,5.63
2023-03-17T09:29:08.908Z,5.95
2023-03-17T09:31:13.571Z,5.95
2023-03-17T09:33:18.058Z,6.60
2023-03-17T09:35:21.113Z,3.13
2023-03-17T09:37:24.308Z,6.05
2023-03-17T09:39:27.862Z,4.85
2023-03-17T09:41:49.216Z,6.28
2023-03-17T09:43:57.127Z,6.28
2023-03-17T09:46:09.960Z,6.47
2023-03-17T09:48:42.118Z,7.68
2023-03-17T09:50:49.207Z,7.03
2023-03-17T09:52:53.384Z,6.60
2023-03-17T09:54:57.488Z,7.40
2023-03-17T09:57:07.084Z,5.68
2023-03-17T09:59:29.435Z,7.25
2023-03-17T10:01:32.535Z,6.90
2023-03-17T10:03:37.790Z,6.63
2023-03-17T10:05:40.932Z,7.38
2023-03-17T10:07:52.166Z,5.80
2023-03-17T10:10:01.797Z,6.55
2023-03-17T10:12:10.233Z,6.28
2023-03-17T10:14:30.010Z,7.15
2023-03-17T10:16:43.153Z,5.90
2023-03-17T10:18:54.686Z,7.20
2023-03-17T10:21:02.051Z,7.05
2023-03-17T10:23:07.965Z,6.07
2023-03-17T10:25:16.048Z,5.57
2023-03-17T10:27:19.855Z,3.80
2023-03-17T10:29:26.893Z,4.55
2023-03-17T10:31:35.816Z,4.63
2023-03-17T10:33:38.795Z,4.50
2023-03-17T10:35:45.221Z,4.18
2023-03-17T10:37:48.706Z,4.85
2023-03-17T10:39:52.983Z,4.57
2023-03-17T10:41:58.391Z,3.80
2023-03-17T10:44:01.350Z,4.90
2023-03-17T10:46:05.976Z,5.18
2023-03-17T10:48:11.000Z,5.60
2023-03-17T10:50:23.210Z,5.10
2023-03-17T10:52:30.636Z,3.65
2023-03-17T10:54:36.364Z,5.40
2023-03-17T10:58:49.221Z,4.97
2023-03-17T11:00:57.189Z,5.57
2023-03-17T11:03:03.640Z,5.18
2023-03-17T11:05:17.676Z,5.28
2023-03-17T11:07:27.476Z,4.97
2023-03-17T11:09:36.148Z,5.80
2023-03-17T11:11:44.951Z,5.57
2023-03-17T11:13:48.428Z,6.13
2023-03-17T11:15:56.785Z,5.40
2023-03-17T11:18:01.549Z,6.03
2023-03-17T11:20:19.998Z,6.22
2023-03-17T11:22:31.098Z,5.43
2023-03-17T11:24:46.408Z,4.70
2023-03-17T11:26:59.621Z,6.15
2023-03-17T11:29:20.230Z,4.78
2023-03-17T11:31:31.479Z,5.30
2023-03-17T11:33:41.561Z,5.57
2023-03-17T11:35:56.475Z,5.70
2023-03-17T11:38:24.809Z,6.45
2023-03-17T11:40:35.421Z,7.30
2023-03-17T11:42:48.090Z,6.43
2023-03-17T11:45:22.937Z,5.93
2023-03-17T11:47:43.242Z,7.50
2023-03-17T11:49:52.890Z,6.88
2023-03-17T11:52:03.707Z,4.38
2023-03-17T11:54:18.609Z,7.57
2023-03-17T11:56:29.176Z,7.10
2023-03-17T11:58:37.356Z,6.95
2023-03-17T12:00:46.223Z,7.43
2023-03-17T12:02:54.915Z,6.78
2023-03-17T12:05:02.776Z,7.63
2023-03-17T12:07:14.084Z,6.68
2023-03-17T12:09:26.180Z,7.13
2023-03-17T12:11:35.474Z,6.70
2023-03-17T12:13:43.499Z,5.35
2023-03-17T12:15:51.386Z,7.28
2023-03-17T12:17:59.087Z,6.65
2023-03-17T12:20:16.823Z,6.85
2023-03-17T12:22:28.662Z,5.22
2023-03-17T12:24:35.547Z,6.47
2023-03-17T12:26:49.292Z,5.22
2023-03-17T12:28:57.957Z,4.35
2023-03-17T12:31:06.239Z,5.20
2023-03-17T12:33:18.431Z,5.53
2023-03-17T12:35:28.305Z,5.82
2023-03-17T12:37:31.572Z,5.65
2023-03-17T12:39:37.462Z,6.90
2023-03-17T12:44:03.332Z,5.78
2023-03-17T12:46:35.668Z,6.50
2023-03-17T12:49:20.276Z,6.00
2023-03-17T12:51:50.372Z,6.13
2023-03-17T12:53:54.160Z,10.40
2023-03-17T12:56:02.492Z,6.38
2023-03-17T12:58:23.720Z,7.10
2023-03-17T13:00:30.308Z,5.97
2023-03-17T13:04:39.570Z,5.68
2023-03-17T13:06:45.591Z,4.30
2023-03-17T13:11:18.949Z,4.72
2023-03-17T13:13:41.261Z,5.50
2023-03-17T13:15:54.419Z,5.72
2023-03-17T13:18:27.514Z,5.43
2023-03-17T13:20:39.403Z,4.80
2023-03-17T13:23:03.545Z,4.80
2023-03-17T13:25:30.733Z,5.93
2023-03-17T13:27:45.442Z,4.25
2023-03-17T13:29:49.832Z,5.15
2023-03-17T13:31:53.115Z,4.22
2023-03-17T13:33:57.941Z,4.72
2023-03-17T13:36:30.856Z,3.80
2023-03-17T13:39:18.264Z,5.38
2023-03-17T13:41:38.017Z,4.72
2023-03-17T13:44:02.433Z,4.70
2023-03-17T13:46:26.938Z,4.90
2023-03-17T13:48:34.657Z,8.20
2023-03-17T13:50:40.474Z,5.10
2023-03-17T13:52:48.859Z,4.38
2023-03-17T13:55:02.002Z,5.35
2023-03-17T13:57:26.814Z,4.72
2023-03-17T13:59:48.560Z,4.95
2023-03-17T14:01:58.015Z,4.40
2023-03-17T14:04:08.820Z,4.50
2023-03-17T14:06:14.616Z,4.50
2023-03-17T14:08:26.003Z,2.88
2023-03-17T14:10:30.662Z,2.97
2023-03-17T14:12:40.800Z,3.83
2023-03-17T14:14:50.253Z,4.72
2023-03-17T14:16:59.629Z,4.32
2023-03-17T14:19:16.506Z,4.85
2023-03-17T14:21:22.694Z,4.07
2023-03-17T14:23:26.114Z,4.60
2023-03-17T14:25:34.411Z,5.30
2023-03-17T14:27:39.702Z,5.15
2023-03-17T14:29:43.661Z,4.78
2023-03-17T14:31:50.150Z,4.88
2023-03-17T14:33:56.829Z,5.18
2023-03-17T14:36:01.675Z,4.63
2023-03-17T14:38:19.305Z,4.90
2023-03-17T14:40:25.004Z,5.10
2023-03-17T14:42:29.883Z,5.53
2023-03-17T14:44:40.200Z,4.72
2023-03-17T14:46:43.316Z,4.80
2023-03-17T14:48:49.586Z,9.80
2023-03-17T14:50:55.712Z,8.80
2023-03-17T14:52:59.840Z,14.35
2023-03-17T14:55:02.875Z,13.02
2023-03-17T14:57:08.434Z,13.48
2023-03-17T14:59:19.728Z,6.13
2023-03-17T15:01:34.209Z,7.10
2023-03-17T15:03:40.445Z,6.70
2023-03-17T15:05:46.622Z,6.38
2023-03-17T15:07:51.324Z,6.43
2023-03-17T15:10:00.167Z,5.40
2023-03-17T15:12:06.256Z,6.07
2023-03-17T15:14:19.342Z,5.43
2023-03-17T15:16:27.820Z,7.80
2023-03-17T15:18:31.125Z,5.38
2023-03-17T15:20:35.644Z,5.88
2023-03-17T15:22:43.195Z,5.40
2023-03-17T15:24:58.658Z,4.45
2023-03-17T15:27:03.588Z,6.95
2023-03-17T15:29:07.857Z,5.25
2023-03-17T15:31:14.172Z,5.60
2023-03-17T15:33:22.197Z,4.45
2023-03-17T15:35:25.466Z,5.07
2023-03-17T15:37:30.622Z,14.80
2023-03-17T15:39:34.236Z,18.73
2023-03-17T15:41:38.700Z,35.50
2023-03-17T15:43:41.687Z,40.75
2023-03-17T15:45:46.442Z,27.08
2023-03-17T15:47:49.344Z,16.77
2023-03-17T15:49:52.779Z,16.30
2023-03-17T15:51:55.637Z,60.40
2023-03-17T15:53:58.477Z,93.32
2023-03-17T15:56:01.415Z,77.78
2023-03-17T15:58:05.905Z,45.60
2023-03-17T16:00:10.883Z,65.72
2023-03-17T16:02:28.162Z,57.42
2023-03-17T16:04:31.544Z,38.10
2023-03-17T16:06:35.371Z,46.58
2023-03-17T16:08:39.041Z,34.70
2023-03-17T16:10:42.230Z,44.60
2023-03-17T16:12:45.562Z,48.13
2023-03-17T16:14:50.198Z,35.10
2023-03-17T16:16:53.306Z,10.95
2023-03-17T16:18:56.400Z,10.70
2023-03-17T16:20:59.359Z,10.05
2023-03-17T16:23:08.414Z,10.98
2023-03-17T16:25:21.750Z,9.50
2023-03-17T16:27:24.906Z,8.65
2023-03-17T16:29:27.845Z,6.90
2023-03-17T16:31:32.360Z,9.63
2023-03-17T16:33:40.194Z,9.52
2023-03-17T16:35:43.297Z,8.90
2023-03-17T16:37:46.563Z,6.82
2023-03-17T16:39:52.498Z,6.63
2023-03-17T16:41:55.703Z,5.82
2023-03-17T16:44:00.692Z,5.70
2023-03-17T16:46:05.508Z,20.25
2023-03-17T16:48:13.895Z,11.67
2023-03-17T16:50:18.770Z,7.10
2023-03-17T16:52:21.707Z,6.13
2023-03-17T16:54:24.683Z,5.80
2023-03-17T16:56:28.108Z,5.50
2023-03-17T16:58:34.224Z,4.63
2023-03-17T17:00:37.177Z,4.60
2023-03-17T17:02:40.303Z,5.28
2023-03-17T17:04:44.733Z,4.60
2023-03-17T17:06:47.716Z,4.57
2023-03-17T17:08:51.746Z,5.07
2023-03-17T17:10:54.686Z,5.07
2023-03-17T17:12:57.656Z,4.55
2023-03-17T17:15:00.636Z,5.03
2023-03-17T17:17:04.394Z,4.32
2023-03-17T17:19:15.720Z,4.60
2023-03-17T17:21:20.788Z,5.10
2023-03-17T17:23:25.226Z,4.90
2023-03-17T17:25:29.545Z,4.75
2023-03-17T17:27:32.669Z,4.20
2023-03-17T17:29:35.937Z,4.30
2023-03-17T17:31:40.353Z,4.13
2023-03-17T17:33:43.657Z,4.75
2023-03-17T17:35:47.678Z,3.83
2023-03-17T17:37:52.659Z,4.88
2023-03-17T17:39:55.827Z,5.00
2023-03-17T17:41:58.838Z,4.75
2023-03-17T17:44:01.717Z,4.95
2023-03-17T17:46:04.740Z,4.57
2023-03-17T17:48:07.645Z,5.25
2023-03-17T17:50:17.294Z,5.00
2023-03-17T17:52:20.107Z,5.35
2023-03-17T17:54:24.615Z,4.93
2023-03-17T17:56:27.428Z,4.93
2023-03-17T17:58:30.732Z,4.80
2023-03-17T18:00:33.822Z,5.05
2023-03-17T18:02:36.916Z,5.15
2023-03-17T18:04:39.860Z,5.30
2023-03-17T18:06:42.823Z,5.68
2023-03-17T18:08:45.942Z,4.97
2023-03-17T18:10:51.987Z,5.25
2023-03-17T18:12:55.941Z,4.80
2023-03-17T18:14:58.920Z,5.22
2023-03-17T18:17:01.781Z,5.00
2023-03-17T18:19:06.510Z,6.05
2023-03-17T18:21:10.156Z,5.05
2023-03-17T18:23:13.392Z,5.30
2023-03-17T18:25:16.781Z,4.97
2023-03-17T18:27:21.182Z,5.60
2023-03-17T18:29:23.950Z,6.03
2023-03-17T18:31:31.873Z,5.93
2023-03-17T18:33:35.095Z,5.60
2023-03-17T18:35:38.299Z,7.28
2023-03-17T18:37:41.527Z,5.68
2023-03-17T18:39:48.430Z,5.97
2023-03-17T18:41:56.406Z,5.43
2023-03-17T18:44:01.303Z,6.57
2023-03-17T18:46:04.735Z,6.20
2023-03-17T18:48:07.676Z,6.15
2023-03-17T18:50:12.602Z,6.43
2023-03-17T18:52:15.636Z,6.70
2023-03-17T18:54:18.444Z,6.55
2023-03-17T18:56:23.658Z,6.20
2023-03-17T18:58:26.654Z,7.50
2023-03-17T19:00:31.530Z,6.78
2023-03-17T19:02:34.674Z,6.70
2023-03-17T19:04:39.784Z,6.60
2023-03-17T19:06:43.061Z,6.05
2023-03-17T19:08:46.994Z,7.32
2023-03-17T19:10:50.386Z,7.57
2023-03-17T19:12:53.653Z,7.18
2023-03-17T19:14:56.733Z,8.02
2023-03-17T19:17:01.412Z,9.15
2023-03-17T19:19:04.456Z,9.03
2023-03-17T19:21:08.782Z,7.82
2023-03-17T19:23:12.748Z,8.02
2023-03-17T19:25:16.977Z,8.45
2023-03-17T19:27:20.349Z,9.05
2023-03-17T19:29:23.440Z,8.98
2023-03-17T19:31:27.429Z,8.68
2023-03-17T19:33:32.976Z,9.15
2023-03-17T19:35:35.883Z,9.70
2023-03-17T19:37:38.839Z,9.18
2023-03-17T19:39:44.640Z,9.65
2023-03-17T19:41:50.373Z,9.50
2023-03-17T19:43:53.170Z,9.63
2023-03-17T19:45:56.269Z,10.50
2023-03-17T19:47:59.112Z,9.90
2023-03-17T19:50:03.535Z,10.52
2023-03-17T19:52:06.867Z,10.40
2023-03-17T19:54:11.485Z,10.65
2023-03-17T19:56:14.815Z,11.45
2023-03-17T19:58:17.733Z,12.02
2023-03-17T20:00:22.845Z,11.20
2023-03-17T20:02:25.903Z,11.15
2023-03-17T20:04:29.103Z,11.95
2023-03-17T20:06:34.923Z,11.30
2023-03-17T20:08:38.031Z,12.30
2023-03-17T20:10:40.954Z,11.00
2023-03-17T20:12:46.083Z,11.15
2023-03-17T20:14:49.154Z,11.77
2023-03-17T20:16:52.274Z,12.18
2023-03-17T20:18:55.277Z,11.68
2023-03-17T20:21:00.436Z,12.05
2023-03-17T20:23:04.924Z,16.58
2023-03-17T20:25:10.654Z,18.15
2023-03-17T20:27:16.634Z,12.73
2023-03-17T20:29:20.226Z,12.95
2023-03-17T20:31:23.820Z,12.52
2023-03-17T20:33:27.063Z,12.77
2023-03-17T20:35:31.168Z,13.55
2023-03-17T20:37:34.275Z,12.98
2023-03-17T20:39:38.714Z,13.40
2023-03-17T20:41:41.920Z,13.30
2023-03-17T20:43:45.507Z,13.13
2023-03-17T20:45:51.375Z,13.70
2023-03-17T20:47:54.855Z,12.93
2023-03-17T20:49:59.173Z,12.63
2023-03-17T20:52:02.333Z,12.60
2023-03-17T20:54:05.599Z,12.95
2023-03-17T20:56:12.815Z,12.52
2023-03-17T20:58:15.845Z,12.68
2023-03-17T21:00:21.578Z,12.35
2023-03-17T21:04:27.935Z,11.60
2023-03-17T21:06:31.735Z,12.90
2023-03-17T21:08:34.983Z,11.10
2023-03-17T21:10:37.854Z,11.48
2023-03-17T21:12:42.397Z,11.13
2023-03-17T21:14:45.622Z,11.10
2023-03-17T21:16:48.765Z,10.02
2023-03-17T21:18:51.878Z,11.07
2023-03-17T21:20:54.844Z,10.70
2023-03-17T21:22:58.164Z,11.15
2023-03-17T21:25:01.686Z,10.65
2023-03-17T21:27:07.154Z,10.75
2023-03-17T21:29:12.074Z,10.70
2023-03-17T21:31:17.453Z,10.93
2023-03-17T21:35:25.162Z,10.18
2023-03-17T21:37:28.363Z,9.90
2023-03-17T21:39:32.972Z,11.88
2023-03-17T21:41:38.188Z,11.17
2023-03-17T21:43:41.049Z,11.82
2023-03-17T21:45:45.587Z,11.93
2023-03-17T21:47:48.468Z,12.10
2023-03-17T21:49:51.434Z,11.68
2023-03-17T21:51:55.032Z,12.85
2023-03-17T21:53:58.342Z,11.68
2023-03-17T21:56:01.461Z,11.60
2023-03-17T21:58:04.393Z,11.57
2023-03-17T22:00:09.933Z,11.98
2023-03-17T22:02:17.965Z,11.45
2023-03-17T22:04:20.794Z,10.88
2023-03-17T22:06:26.483Z,11.77
2023-03-17T22:10:32.422Z,12.45
2023-03-17T22:12:36.477Z,14.50
2023-03-17T22:14:39.622Z,12.60
2023-03-17T22:16:42.551Z,12.95
2023-03-17T22:18:47.780Z,13.45
2023-03-17T22:20:54.183Z,12.88
2023-03-17T22:22:57.126Z,14.98
2023-03-17T22:25:00.674Z,13.82
2023-03-17T22:27:03.885Z,15.10
2023-03-17T22:29:06.873Z,14.23
2023-03-17T22:31:13.988Z,14.63
2023-03-17T22:33:17.879Z,15.02
2023-03-17T22:35:23.709Z,15.07
2023-03-17T22:37:26.968Z,16.73
2023-03-17T22:39:29.894Z,14.57
2023-03-17T22:41:32.789Z,16.20
2023-03-17T22:43:36.196Z,15.48
2023-03-17T22:45:39.484Z,16.08
2023-03-17T22:47:42.938Z,16.73
2023-03-17T22:49:45.828Z,16.48
2023-03-17T22:51:50.468Z,17.98
2023-03-17T22:53:55.147Z,17.80
2023-03-17T22:55:58.379Z,17.08
2023-03-17T22:58:01.239Z,17.65
2023-03-17T23:00:09.340Z,16.75
2023-03-17T23:02:12.269Z,17.90
2023-03-17T23:04:15.246Z,16.90
2023-03-17T23:06:18.600Z,18.88
2023-03-17T23:08:23.542Z,18.08
2023-03-17T23:10:27.114Z,19.00
2023-03-17T23:12:30.061Z,21.38
2023-03-17T23:14:32.952Z,22.05
2023-03-17T23:16:35.893Z,22.15
2023-03-17T23:18:38.948Z,20.80
2023-03-17T23:20:42.860Z,20.48
2023-03-17T23:22:45.693Z,20.73
2023-03-17T23:24:50.338Z,22.02
2023-03-17T23:26:53.211Z,20.67
2023-03-17T23:28:56.419Z,22.35
2023-03-17T23:30:59.660Z,21.98
2023-03-17T23:33:03.304Z,22.88
2023-03-17T23:35:07.424Z,23.88
2023-03-17T23:37:10.616Z,24.45
2023-03-17T23:39:13.716Z,25.35
2023-03-17T23:41:18.695Z,24.88
2023-03-17T23:43:21.705Z,25.13
2023-03-17T23:45:25.238Z,24.13
2023-03-17T23:47:28.392Z,24.52
2023-03-17T23:49:31.453Z,25.73
2023-03-17T23:51:35.874Z,26.48
2023-03-17T23:53:42.702Z,26.75
2023-03-17T23:55:46.055Z,26.52
2023-03-17T23:58:02.213Z,28.42
